Time;durP1;ratioP1;P1;durP2;ratioP2;P2;SDS_P1;SDS_P2;PMS_P1;PMS_P2;Temp;Humidity;BMP_temperature;BMP_pressure;BME280_temperature;BME280_humidity;BME280_pressure;Samples;Min_cycle;Max_cycle;Signal;HPM_P1;HPM_P2
2023/12/08 00:00:57;;;;;;;;;;;2.90;99.90;;;;;;6742444;88;20124;-79
2023/12/08 00:10:58;;;;;;;;;;;2.80;99.90;;;;;;6746000;88;20517;-80
2023/12/08 00:20:58;;;;;;;;;;;2.80;99.90;;;;;;6745175;88;20082;-80
2023/12/08 00:30:59;;;;;;;;;;;2.90;99.90;;;;;;6744632;88;20971;-80
2023/12/08 00:40:59;;;;;;;;;;;2.90;99.90;;;;;;6746337;88;20496;-80
2023/12/08 00:51:00;;;;;;;;;;;3.00;99.90;;;;;;6744333;88;20058;-80
2023/12/08 01:01:00;;;;;;;;;;;3.00;99.90;;;;;;6740792;88;20076;-80
2023/12/08 01:11:01;;;;;;;;;;;3.00;99.90;;;;;;6745172;88;20075;-80
2023/12/08 01:21:01;;;;;;;;;;;3.00;99.90;;;;;;6747223;88;20073;-79
2023/12/08 01:31:03;;;;;;;;;;;3.00;99.90;;;;;;6744988;88;20061;-80
2023/12/08 01:41:03;;;;;;;;;;;3.00;99.90;;;;;;6741627;88;20065;-80
2023/12/08 01:51:04;;;;;;;;;;;3.00;99.90;;;;;;6737100;88;20604;-80
2023/12/08 02:01:05;;;;;;;;;;;2.90;99.90;;;;;;6741804;88;20087;-80
2023/12/08 02:11:05;;;;;;;;;;;2.90;99.90;;;;;;6745567;88;20077;-80
2023/12/08 02:21:08;;;;;;;;;;;2.90;99.90;;;;;;6748690;88;20183;-80
2023/12/08 02:31:11;;;;;;;;;;;2.90;99.90;;;;;;6746047;88;20116;-80
2023/12/08 02:41:12;;;;;;;;;;;2.90;99.90;;;;;;6741542;88;20484;-80
2023/12/08 02:51:12;;;;;;;;;;;2.90;99.90;;;;;;6732475;88;20135;-80
2023/12/08 03:01:14;;;;;;;;;;;3.00;99.90;;;;;;6742890;88;20471;-79
2023/12/08 03:11:15;;;;;;;;;;;2.90;99.90;;;;;;6732531;88;20494;-80
2023/12/08 03:21:22;;;;;;;;;;;2.90;99.90;;;;;;6733130;88;20425;-79
2023/12/08 03:31:23;;;;;;;;;;;2.70;99.90;;;;;;6730399;88;20071;-79
2023/12/08 03:41:23;;;;;;;;;;;2.60;99.90;;;;;;6733569;88;20059;-80
2023/12/08 03:51:24;;;;;;;;;;;2.50;99.90;;;;;;6732008;88;20084;-81
2023/12/08 04:11:28;;;;;;;;;;;2.10;99.90;;;;;;6764375;88;20089;-80
2023/12/08 04:21:28;;;;;;;;;;;1.80;99.90;;;;;;6760966;88;20201;-79
2023/12/08 04:31:28;;;;;;;;;;;1.70;99.90;;;;;;6762259;88;20075;-80
2023/12/08 04:41:29;;;;;;;;;;;1.70;99.90;;;;;;6762726;88;20018;-79
2023/12/08 04:51:29;;;;;;;;;;;1.80;99.90;;;;;;6750528;88;20513;-79
2023/12/08 05:01:30;;;;;;;;;;;1.70;99.90;;;;;;6741447;88;20053;-79
2023/12/08 05:11:30;;;;;;;;;;;1.80;99.90;;;;;;6758270;88;20076;-79
2023/12/08 05:21:31;;;;;;;;;;;1.80;99.90;;;;;;6745685;88;20066;-79
2023/12/08 05:31:31;;;;;;;;;;;1.80;99.90;;;;;;6744981;88;20092;-79
2023/12/08 05:41:31;;;;;;;;;;;1.80;99.90;;;;;;6744958;88;20094;-77
2023/12/08 05:51:32;;;;;;;;;;;1.80;99.90;;;;;;6747053;88;20103;-78
2023/12/08 06:01:32;;;;;;;;;;;1.80;99.90;;;;;;6745856;88;20054;-79
2023/12/08 06:11:33;;;;;;;;;;;1.80;99.90;;;;;;6746059;88;20713;-78
2023/12/08 06:21:33;;;;;;;;;;;1.80;99.90;;;;;;6737916;88;20050;-78
2023/12/08 06:31:34;;;;;;;;;;;1.80;99.90;;;;;;6740212;88;20200;-78
2023/12/08 06:41:35;;;;;;;;;;;1.90;99.90;;;;;;6745753;88;20536;-79
2023/12/08 06:51:36;;;;;;;;;;;2.00;99.90;;;;;;6747244;88;20061;-79
2023/12/08 07:01:36;;;;;;;;;;;2.00;99.90;;;;;;6751559;88;20137;-78
2023/12/08 07:11:37;;;;;;;;;;;2.10;99.90;;;;;;6755472;88;20188;-77
2023/12/08 07:21:41;;;;;;;;;;;2.00;99.90;;;;;;6750324;88;20166;-78
2023/12/08 07:31:41;;;;;;;;;;;2.10;99.90;;;;;;6751212;88;20072;-79
2023/12/08 07:41:43;;;;;;;;;;;2.10;99.90;;;;;;6750847;88;20103;-79
2023/12/08 07:51:43;;;;;;;;;;;2.10;99.90;;;;;;6745143;88;20077;-80
2023/12/08 08:01:43;;;;;;;;;;;2.20;99.90;;;;;;6748929;88;20083;-79
2023/12/08 08:11:44;;;;;;;;;;;2.20;99.90;;;;;;6748518;88;20070;-79
2023/12/08 08:21:45;;;;;;;;;;;2.30;99.90;;;;;;6751259;88;20100;-80
2023/12/08 08:31:45;;;;;;;;;;;2.40;99.90;;;;;;6749890;88;20145;-79
2023/12/08 08:41:46;;;;;;;;;;;2.50;99.90;;;;;;6743018;88;20092;-79
2023/12/08 08:51:47;;;;;;;;;;;2.60;99.90;;;;;;6731096;88;20055;-79
2023/12/08 09:01:47;;;;;;;;;;;2.60;99.90;;;;;;6736829;88;20058;-80
2023/12/08 09:11:48;;;;;;;;;;;2.70;99.90;;;;;;6732408;88;20058;-79
2023/12/08 09:21:48;;;;;;;;;;;2.80;99.90;;;;;;6727934;88;20155;-79
2023/12/08 09:31:48;;;;;;;;;;;2.90;99.90;;;;;;6728927;88;20082;-78
2023/12/08 09:41:51;;;;;;;;;;;2.90;99.90;;;;;;6730442;88;20591;-78
2023/12/08 09:51:52;;;;;;;;;;;3.00;99.90;;;;;;6739356;88;20086;-79
2023/12/08 10:01:54;;;;;;;;;;;3.10;99.90;;;;;;6739373;88;20059;-78
2023/12/08 10:11:55;;;;;;;;;;;3.10;99.90;;;;;;6727172;88;20066;-78
2023/12/08 10:21:59;;;;;;;;;;;3.30;99.90;;;;;;6734987;88;20084;-77
2023/12/08 10:32:00;;;;;;;;;;;3.40;99.90;;;;;;6734135;88;20087;-78
2023/12/08 10:42:01;;;;;;;;;;;3.40;99.90;;;;;;6742178;88;20055;-77
2023/12/08 10:52:01;;;;;;;;;;;3.50;99.90;;;;;;6736717;88;20111;-77
2023/12/08 11:02:04;;;;;;;;;;;3.60;99.90;;;;;;6734398;88;20070;-79
2023/12/08 11:12:06;;;;;;;;;;;3.80;99.90;;;;;;6739231;88;20204;-78
2023/12/08 11:22:07;;;;;;;;;;;3.80;99.90;;;;;;6736783;88;20478;-78
2023/12/08 11:42:12;;;;;;;;;;;4.10;99.90;;;;;;6719657;88;20156;-76
2023/12/08 11:52:17;;;;;;;;;;;4.30;99.90;;;;;;6709655;88;20119;-76
2023/12/08 12:02:17;;;;;;;;;;;4.60;99.90;;;;;;6709742;88;20075;-76
2023/12/08 12:12:22;;;;;;;;;;;4.70;99.90;;;;;;6716489;88;20078;-75
2023/12/08 12:22:23;;;;;;;;;;;4.90;99.90;;;;;;6715933;88;20513;-76
2023/12/08 12:32:24;;;;;;;;;;;5.10;99.90;;;;;;6701101;88;20130;-76
2023/12/08 12:42:24;;;;;;;;;;;5.10;99.90;;;;;;6728067;88;20293;-77
2023/12/08 12:52:25;;;;;;;;;;;5.30;99.90;;;;;;6727319;88;20049;-77
2023/12/08 13:02:27;;;;;;;;;;;5.30;99.90;;;;;;6725048;88;20157;-76
2023/12/08 13:12:28;;;;;;;;;;;5.30;99.90;;;;;;6734915;88;20502;-78
2023/12/08 13:22:28;;;;;;;;;;;5.50;99.90;;;;;;6723270;88;20063;-76
2023/12/08 13:32:28;;;;;;;;;;;5.50;99.90;;;;;;6726424;87;20072;-77
2023/12/08 13:42:29;;;;;;;;;;;5.50;99.90;;;;;;6717836;88;20075;-77
2023/12/08 13:52:30;;;;;;;;;;;5.50;99.90;;;;;;6722330;88;20643;-76
2023/12/08 14:02:31;;;;;;;;;;;5.70;99.90;;;;;;6722120;88;20672;-76
2023/12/08 14:12:31;;;;;;;;;;;5.80;99.90;;;;;;6724057;88;20063;-77
2023/12/08 14:22:32;;;;;;;;;;;5.80;99.90;;;;;;6719767;88;20574;-76
2023/12/08 14:32:32;;;;;;;;;;;5.80;99.90;;;;;;6720181;88;20059;-77
2023/12/08 14:42:33;;;;;;;;;;;5.90;99.90;;;;;;6720362;88;20046;-76
2023/12/08 14:52:34;;;;;;;;;;;5.90;99.90;;;;;;6714410;88;20146;-75
2023/12/08 15:02:34;;;;;;;;;;;6.00;99.90;;;;;;6726055;88;20452;-77
2023/12/08 15:12:36;;;;;;;;;;;6.00;99.90;;;;;;6721953;88;20063;-74
2023/12/08 15:22:39;;;;;;;;;;;6.10;99.90;;;;;;6726748;88;20046;-74
2023/12/08 15:32:39;;;;;;;;;;;6.00;99.90;;;;;;6728857;88;20121;-74
2023/12/08 15:42:40;;;;;;;;;;;5.90;99.90;;;;;;6727384;88;20117;-75
2023/12/08 15:52:41;;;;;;;;;;;5.90;99.90;;;;;;6731937;88;20151;-75
2023/12/08 16:02:46;;;;;;;;;;;5.90;99.90;;;;;;6730640;88;20059;-75
2023/12/08 16:12:47;;;;;;;;;;;5.80;99.90;;;;;;6729119;88;20081;-75
2023/12/08 16:22:47;;;;;;;;;;;5.90;99.90;;;;;;6727070;88;20410;-75
2023/12/08 16:32:47;;;;;;;;;;;5.90;99.90;;;;;;6728315;88;20070;-74
2023/12/08 16:42:48;;;;;;;;;;;5.90;99.90;;;;;;6724440;88;20077;-75
2023/12/08 16:52:52;;;;;;;;;;;5.80;99.90;;;;;;6728153;88;20091;-75
2023/12/08 17:02:52;;;;;;;;;;;5.90;99.90;;;;;;6733786;88;20064;-75
2023/12/08 17:12:53;;;;;;;;;;;5.80;99.90;;;;;;6733321;88;20619;-75
2023/12/08 17:22:53;;;;;;;;;;;5.90;99.90;;;;;;6733898;88;20134;-76
2023/12/08 17:32:54;;;;;;;;;;;5.80;99.90;;;;;;6735814;77;20071;-77
2023/12/08 17:42:54;;;;;;;;;;;5.80;99.90;;;;;;6735901;88;20077;-78
2023/12/08 17:52:55;;;;;;;;;;;5.70;99.90;;;;;;6734592;88;20062;-77
2023/12/08 18:02:56;;;;;;;;;;;5.80;99.90;;;;;;6734949;88;20055;-77
2023/12/08 18:12:57;;;;;;;;;;;5.80;99.90;;;;;;6737719;88;20073;-77
2023/12/08 18:22:58;;;;;;;;;;;5.80;99.90;;;;;;6732861;88;20141;-78
2023/12/08 18:32:58;;;;;;;;;;;5.80;99.90;;;;;;6735281;88;20540;-77
2023/12/08 18:42:58;;;;;;;;;;;5.80;99.90;;;;;;6732725;88;20059;-76
2023/12/08 18:52:59;;;;;;;;;;;5.80;99.90;;;;;;6739542;88;20132;-76
2023/12/08 19:02:59;;;;;;;;;;;5.80;99.90;;;;;;6738161;88;20106;-76
2023/12/08 19:13:00;;;;;;;;;;;5.90;99.90;;;;;;6737463;88;20084;-76
2023/12/08 19:23:00;;;;;;;;;;;5.90;99.90;;;;;;6731416;88;20063;-75
2023/12/08 19:33:01;;;;;;;;;;;6.00;99.90;;;;;;6733134;88;20058;-77
2023/12/08 19:43:01;;;;;;;;;;;6.10;99.90;;;;;;6745933;88;20631;-78
2023/12/08 19:53:03;;;;;;;;;;;6.00;99.90;;;;;;6737785;88;20169;-78
2023/12/08 20:03:04;;;;;;;;;;;6.10;99.90;;;;;;6742217;88;20061;-79
2023/12/08 20:13:05;;;;;;;;;;;6.10;99.90;;;;;;6743076;88;20096;-79
2023/12/08 20:23:05;;;;;;;;;;;6.10;99.90;;;;;;6747025;88;20069;-77
2023/12/08 20:33:08;;;;;;;;;;;6.00;99.90;;;;;;6737000;88;20077;-78
2023/12/08 20:43:09;;;;;;;;;;;6.10;99.90;;;;;;6740839;88;20176;-78
2023/12/08 20:53:09;;;;;;;;;;;6.00;99.90;;;;;;6736689;88;20061;-78
2023/12/08 21:03:10;;;;;;;;;;;6.10;99.90;;;;;;6740390;88;20498;-78
2023/12/08 21:13:11;;;;;;;;;;;6.20;99.90;;;;;;6737192;88;20185;-77
2023/12/08 21:23:11;;;;;;;;;;;6.20;99.90;;;;;;6737470;88;20085;-78
2023/12/08 21:33:12;;;;;;;;;;;6.10;99.90;;;;;;6736953;88;20096;-79
2023/12/08 21:43:12;;;;;;;;;;;6.10;99.90;;;;;;6747256;88;20090;-78
2023/12/08 21:53:13;;;;;;;;;;;6.00;99.90;;;;;;6745243;88;20067;-78
2023/12/08 22:03:13;;;;;;;;;;;6.10;99.90;;;;;;6741471;88;20084;-78
2023/12/08 22:13:13;;;;;;;;;;;6.30;99.90;;;;;;6745135;88;20054;-78
2023/12/08 22:23:14;;;;;;;;;;;6.40;99.90;;;;;;6740349;88;20083;-78
2023/12/08 22:33:14;;;;;;;;;;;6.70;99.90;;;;;;6745940;88;20084;-77
2023/12/08 22:43:15;;;;;;;;;;;6.70;99.90;;;;;;6740306;88;20161;-78
2023/12/08 22:53:15;;;;;;;;;;;6.70;99.90;;;;;;6737797;88;20073;-79
2023/12/08 23:03:16;;;;;;;;;;;6.90;99.90;;;;;;6736670;88;20125;-78
2023/12/08 23:13:16;;;;;;;;;;;7.00;99.90;;;;;;6734821;88;20117;-78
2023/12/08 23:23:17;;;;;;;;;;;7.20;99.90;;;;;;6738603;88;20054;-78
2023/12/08 23:43:21;;;;;;;;;;;7.40;99.90;;;;;;6726331;88;20081;-79
2023/12/08 23:53:21;;;;;;;;;;;7.50;99.90;;;;;;6727273;88;20098;-78
